createdAt,value
2022-10-16T00:01:42.619Z,100211.47
2022-10-16T00:04:10.242Z,100230.31
2022-10-16T00:06:37.388Z,100230.28
2022-10-16T00:09:04.973Z,100236.31
2022-10-16T00:11:35.246Z,100227.75
2022-10-16T00:14:04.815Z,100233.63
2022-10-16T00:16:32.221Z,100229.25
2022-10-16T00:18:59.687Z,100216.41
2022-10-16T00:21:29.513Z,100229.19
2022-10-16T00:24:01.000Z,100222.22
2022-10-16T00:26:30.093Z,100223.91
2022-10-16T00:28:57.273Z,100220.44
2022-10-16T00:31:25.102Z,100186.31
2022-10-16T00:33:53.266Z,100176.00
2022-10-16T00:36:23.466Z,100216.13
2022-10-16T00:38:55.969Z,100222.97
2022-10-16T00:41:26.244Z,100222.06
2022-10-16T00:43:55.431Z,100225.56
2022-10-16T00:46:46.619Z,100222.06
2022-10-16T00:49:19.987Z,100225.56
2022-10-16T00:51:51.002Z,100188.81
2022-10-16T00:54:24.963Z,100204.16
2022-10-16T00:56:52.750Z,100178.53
2022-10-16T00:59:34.594Z,100220.44
2022-10-16T01:02:02.703Z,100236.03
2022-10-16T01:04:38.095Z,100241.16
2022-10-16T01:07:27.057Z,100202.66
2022-10-16T01:10:00.845Z,100241.16
2022-10-16T01:12:45.480Z,100183.97
2022-10-16T01:15:33.592Z,100242.03
2022-10-16T01:18:09.998Z,100241.25
2022-10-16T01:20:44.325Z,100243.78
2022-10-16T01:23:26.525Z,100248.22
2022-10-16T01:26:32.379Z,100246.50
2022-10-16T01:29:20.510Z,100246.50
2022-10-16T01:31:55.024Z,100242.97
2022-10-16T01:34:45.944Z,100247.28
2022-10-16T01:37:30.764Z,100234.47
2022-10-16T01:40:01.812Z,100251.59
2022-10-16T01:42:35.939Z,100249.91
2022-10-16T01:45:07.766Z,100255.03
2022-10-16T01:47:37.892Z,100255.03
2022-10-16T01:50:06.946Z,100249.84
2022-10-16T01:52:38.392Z,100236.97
2022-10-16T01:55:08.437Z,100234.38
2022-10-16T01:57:40.535Z,100230.94
2022-10-16T02:00:11.861Z,100248.22
2022-10-16T02:02:44.626Z,100145.59
2022-10-16T02:05:23.622Z,100243.84
2022-10-16T02:07:51.253Z,100242.09
2022-10-16T02:10:19.376Z,100249.13
2022-10-16T02:12:57.504Z,100181.63
2022-10-16T02:15:24.728Z,100222.63
2022-10-16T02:17:51.870Z,100215.81
2022-10-16T02:20:24.064Z,100249.97
2022-10-16T02:22:53.142Z,100249.22
2022-10-16T02:25:34.239Z,100244.78
2022-10-16T02:28:03.967Z,100239.66
2022-10-16T02:30:42.903Z,100241.34
2022-10-16T02:33:14.775Z,100242.22
2022-10-16T02:35:44.044Z,100203.81
2022-10-16T02:38:13.708Z,100227.81
2022-10-16T02:40:42.080Z,100253.56
2022-10-16T02:43:10.309Z,100260.44
2022-10-16T02:45:38.177Z,100260.44
2022-10-16T02:48:05.742Z,100267.41
2022-10-16T02:50:33.116Z,100254.31
2022-10-16T02:53:00.231Z,100252.63
2022-10-16T02:55:29.078Z,100248.34
2022-10-16T02:57:56.224Z,100247.44
2022-10-16T03:00:23.877Z,100243.09
2022-10-16T03:02:51.515Z,100242.19
2022-10-16T03:05:18.800Z,100159.34
2022-10-16T03:07:45.948Z,100150.78
2022-10-16T03:10:13.346Z,100245.78
2022-10-16T03:12:40.617Z,100249.16
2022-10-16T03:15:08.669Z,100249.22
2022-10-16T03:17:36.037Z,100207.25
2022-10-16T03:20:03.785Z,100242.16
2022-10-16T03:22:30.954Z,100243.09
2022-10-16T03:24:58.244Z,100213.97
2022-10-16T03:27:25.599Z,100239.59
2022-10-16T03:29:53.134Z,100260.31
2022-10-16T03:32:21.277Z,100260.31
2022-10-16T03:34:48.524Z,100251.81
2022-10-16T03:37:15.692Z,100260.38
2022-10-16T03:39:42.812Z,100200.66
2022-10-16T03:42:09.970Z,100262.06
2022-10-16T03:44:37.094Z,100271.53
2022-10-16T03:47:04.193Z,100265.50
2022-10-16T03:49:31.445Z,100249.28
2022-10-16T03:51:58.673Z,100227.88
2022-10-16T03:54:26.077Z,100227.88
2022-10-16T03:56:53.256Z,100249.44
2022-10-16T03:59:20.519Z,100250.28
2022-10-16T04:01:47.808Z,100251.97
2022-10-16T04:04:15.016Z,100288.72
2022-10-16T04:06:42.334Z,100241.56
2022-10-16T04:09:09.553Z,100203.91
2022-10-16T04:11:36.935Z,100267.09
2022-10-16T04:14:04.243Z,100268.78
2022-10-16T04:16:31.488Z,100274.00
2022-10-16T04:18:58.759Z,100176.56
2022-10-16T04:21:26.087Z,100284.47
2022-10-16T04:23:53.445Z,100287.97
2022-10-16T04:26:20.759Z,100287.88
2022-10-16T04:28:48.076Z,100281.09
2022-10-16T04:31:15.607Z,100279.34
2022-10-16T04:33:46.024Z,100299.13
2022-10-16T04:36:13.465Z,100296.50
2022-10-16T04:38:40.994Z,100308.63
2022-10-16T04:41:08.902Z,100299.13
2022-10-16T04:43:36.401Z,100283.69
2022-10-16T04:46:05.797Z,100253.66
2022-10-16T04:48:33.439Z,100289.66
2022-10-16T04:51:00.798Z,100308.47
2022-10-16T04:53:28.274Z,100306.78
2022-10-16T04:55:55.723Z,100314.56
2022-10-16T04:58:23.576Z,100323.97
2022-10-16T05:00:50.796Z,100309.38
2022-10-16T05:03:18.432Z,100320.38
2022-10-16T05:05:46.737Z,100329.00
2022-10-16T05:08:15.338Z,100334.13
2022-10-16T05:10:44.583Z,100322.16
2022-10-16T05:13:12.359Z,100327.97
2022-10-16T05:15:39.533Z,100329.69
2022-10-16T05:18:06.816Z,100325.25
2022-10-16T05:20:34.037Z,100339.09
2022-10-16T05:23:01.589Z,100330.44
2022-10-16T05:25:28.838Z,100332.97
2022-10-16T05:27:56.060Z,100347.56
2022-10-16T05:30:23.464Z,100350.97
2022-10-16T05:32:52.116Z,100338.78
2022-10-16T05:35:20.919Z,100345.69
2022-10-16T05:37:48.540Z,100349.13
2022-10-16T05:40:16.232Z,100339.59
2022-10-16T05:42:43.388Z,100342.97
2022-10-16T05:45:13.055Z,100250.81
2022-10-16T05:47:40.673Z,100362.88
2022-10-16T05:50:08.533Z,100368.06
2022-10-16T05:52:35.774Z,100362.03
2022-10-16T05:55:03.528Z,100301.28
2022-10-16T05:57:31.249Z,100361.03
2022-10-16T05:59:58.497Z,100358.50
2022-10-16T06:02:25.649Z,100287.47
2022-10-16T06:04:55.936Z,100354.13
2022-10-16T06:07:24.412Z,100362.66
2022-10-16T06:09:53.384Z,100360.94
2022-10-16T06:12:21.069Z,100359.16
2022-10-16T06:14:48.480Z,100345.50
2022-10-16T06:17:15.949Z,100366.06
2022-10-16T06:19:43.295Z,100368.53
2022-10-16T06:22:11.014Z,100362.44
2022-10-16T06:24:38.145Z,100336.78
2022-10-16T06:27:06.593Z,100364.09
2022-10-16T06:29:33.672Z,100364.22
2022-10-16T06:32:01.383Z,100328.22
2022-10-16T06:34:28.622Z,100374.22
2022-10-16T06:36:56.728Z,100319.22
2022-10-16T06:39:23.941Z,100310.59
2022-10-16T06:41:51.130Z,100351.63
2022-10-16T06:44:18.394Z,100373.84
2022-10-16T06:46:45.724Z,100382.34
2022-10-16T06:49:12.974Z,100373.53
2022-10-16T06:51:43.392Z,100385.66
2022-10-16T06:54:11.158Z,100380.38
2022-10-16T06:56:38.840Z,100380.31
2022-10-16T06:59:06.345Z,100346.09
2022-10-16T07:01:34.146Z,100368.22
2022-10-16T07:04:03.520Z,100380.25
2022-10-16T07:06:34.609Z,100385.34
2022-10-16T07:09:04.709Z,100305.06
2022-10-16T07:11:32.025Z,100402.69
2022-10-16T07:14:00.238Z,100379.59
2022-10-16T07:16:29.773Z,100377.91
2022-10-16T07:19:01.479Z,100406.09
2022-10-16T07:21:31.920Z,100365.97
2022-10-16T07:24:01.026Z,100419.88
2022-10-16T07:26:31.216Z,100411.16
2022-10-16T07:28:59.035Z,100418.88
2022-10-16T07:31:26.772Z,100419.69
2022-10-16T07:33:55.024Z,100425.53
2022-10-16T07:36:22.950Z,100426.19
2022-10-16T07:38:52.768Z,100413.34
2022-10-16T07:41:22.601Z,100439.81
2022-10-16T07:43:52.407Z,100440.47
2022-10-16T07:46:22.061Z,100443.84
2022-10-16T07:48:50.224Z,100439.16
2022-10-16T07:51:20.453Z,100447.47
2022-10-16T07:53:48.393Z,100443.66
2022-10-16T07:56:16.854Z,100455.31
2022-10-16T07:58:44.661Z,100448.03
2022-10-16T08:01:16.538Z,100452.94
2022-10-16T08:03:45.406Z,100457.91
2022-10-16T08:06:12.705Z,100460.22
2022-10-16T08:08:40.150Z,100444.84
2022-10-16T08:11:07.287Z,100461.56
2022-10-16T08:13:34.573Z,100444.94
2022-10-16T08:16:02.058Z,100461.59
2022-10-16T08:18:29.331Z,100452.75
2022-10-16T08:20:59.175Z,100433.97
2022-10-16T08:23:27.493Z,100453.56
2022-10-16T08:25:57.297Z,100449.66
2022-10-16T08:28:24.937Z,100450.13
2022-10-16T08:30:52.184Z,100425.56
2022-10-16T08:33:19.762Z,100453.84
2022-10-16T08:35:54.988Z,100456.00
2022-10-16T08:38:22.602Z,100452.66
2022-10-16T08:40:52.863Z,100465.72
2022-10-16T08:43:22.167Z,100468.41
2022-10-16T08:46:22.704Z,100471.13
2022-10-16T08:48:52.039Z,100468.50
2022-10-16T08:51:33.344Z,100478.00
2022-10-16T08:54:23.023Z,100466.00
2022-10-16T08:56:50.495Z,100464.44
2022-10-16T08:59:19.767Z,100467.41
2022-10-16T09:01:51.193Z,100466.75
2022-10-16T09:04:56.788Z,100417.44
2022-10-16T09:08:13.574Z,100458.78
2022-10-16T09:10:46.748Z,100476.97
2022-10-16T09:13:16.663Z,100486.59
2022-10-16T09:16:06.998Z,100474.56
2022-10-16T09:18:47.162Z,100475.34
2022-10-16T09:21:31.881Z,100483.06
2022-10-16T09:24:09.404Z,100478.50
2022-10-16T09:26:36.583Z,100484.38
2022-10-16T09:29:04.779Z,100480.69
2022-10-16T09:31:32.273Z,100477.19
2022-10-16T09:34:07.618Z,100492.50
2022-10-16T09:36:43.305Z,100496.00
2022-10-16T09:39:15.576Z,100499.31
2022-10-16T09:41:46.247Z,100505.75
2022-10-16T09:44:33.213Z,100505.00
2022-10-16T09:47:15.848Z,100482.91
2022-10-16T09:50:07.395Z,100516.56
2022-10-16T09:52:34.838Z,100514.09
2022-10-16T09:55:17.120Z,100510.84
2022-10-16T09:57:54.901Z,100512.66
2022-10-16T10:00:24.733Z,100516.19
2022-10-16T10:02:52.957Z,100518.69
2022-10-16T10:05:24.715Z,100518.69
2022-10-16T10:08:01.179Z,100486.25
2022-10-16T10:10:30.685Z,100495.47
2022-10-16T10:12:58.468Z,100505.28
2022-10-16T10:15:29.165Z,100467.41
2022-10-16T10:17:58.259Z,100501.31
2022-10-16T10:20:35.628Z,100505.88
2022-10-16T10:23:22.844Z,100508.75
2022-10-16T10:25:57.963Z,100460.50
2022-10-16T10:28:49.778Z,100501.34
2022-10-16T10:31:48.918Z,100511.03
2022-10-16T10:34:37.608Z,100511.94
2022-10-16T10:37:09.452Z,100503.41
2022-10-16T10:39:44.817Z,100504.97
2022-10-16T10:42:27.156Z,100520.13
2022-10-16T10:45:05.262Z,100511.34
2022-10-16T10:48:10.153Z,100529.28
2022-10-16T10:50:42.578Z,100490.78
2022-10-16T10:53:22.933Z,100524.16
2022-10-16T10:55:55.959Z,100526.09
2022-10-16T10:58:52.754Z,100499.63
2022-10-16T11:01:44.884Z,100534.88
2022-10-16T11:04:12.009Z,100519.16
2022-10-16T11:06:53.674Z,100534.25
2022-10-16T11:09:28.747Z,100521.72
2022-10-16T11:12:33.553Z,100505.44
2022-10-16T11:15:18.889Z,100512.38
2022-10-16T11:18:00.565Z,100525.25
2022-10-16T11:20:33.003Z,100540.28
2022-10-16T11:23:29.705Z,100529.13
2022-10-16T11:26:03.526Z,100518.22
2022-10-16T11:28:34.078Z,100524.34
2022-10-16T11:31:21.142Z,100526.22
2022-10-16T11:34:07.719Z,100507.22
2022-10-16T11:36:44.176Z,100511.16
2022-10-16T11:39:22.047Z,100525.59
2022-10-16T11:41:54.203Z,100532.34
2022-10-16T11:44:46.336Z,100526.78
2022-10-16T11:47:58.638Z,100513.84
2022-10-16T11:50:50.632Z,100519.53
2022-10-16T11:53:22.953Z,100494.72
2022-10-16T11:55:50.275Z,100521.56
2022-10-16T11:58:17.577Z,100529.47
2022-10-16T12:00:52.974Z,100520.88
2022-10-16T12:03:29.585Z,100512.34
2022-10-16T12:06:12.393Z,100506.69
2022-10-16T12:08:40.002Z,100434.31
2022-10-16T12:11:30.225Z,100501.03
2022-10-16T12:14:06.555Z,100529.44
2022-10-16T12:16:33.812Z,100540.84
2022-10-16T12:19:13.232Z,100538.34
2022-10-16T12:21:41.677Z,100531.38
2022-10-16T12:24:42.666Z,100529.69
2022-10-16T12:27:43.234Z,100517.84
2022-10-16T12:30:25.014Z,100522.19
2022-10-16T12:33:00.328Z,100528.44
2022-10-16T12:35:34.846Z,100535.44
2022-10-16T12:38:17.092Z,100539.16
2022-10-16T12:40:46.264Z,100550.59
2022-10-16T12:43:26.133Z,100542.03
2022-10-16T12:46:23.858Z,100510.34
2022-10-16T12:49:08.339Z,100539.47
2022-10-16T12:51:39.095Z,100537.66
2022-10-16T12:54:27.634Z,100546.31
2022-10-16T12:57:00.485Z,100548.03
2022-10-16T12:59:55.063Z,100560.09
2022-10-16T13:02:53.195Z,100553.06
2022-10-16T13:05:38.389Z,100551.22
2022-10-16T13:08:27.228Z,100565.09
2022-10-16T13:11:09.865Z,100502.75
2022-10-16T13:13:53.356Z,100513.53
2022-10-16T13:16:41.976Z,100561.25
2022-10-16T13:19:18.103Z,100564.66
2022-10-16T13:22:14.633Z,100569.00
2022-10-16T13:25:00.630Z,100568.94
2022-10-16T13:27:57.203Z,100557.94
2022-10-16T13:30:31.146Z,100568.88
2022-10-16T13:33:26.323Z,100568.06
2022-10-16T13:35:56.507Z,100541.53
2022-10-16T13:38:29.463Z,100547.59
2022-10-16T13:40:58.013Z,100571.66
2022-10-16T13:43:34.057Z,100556.44
2022-10-16T13:46:26.642Z,100561.38
2022-10-16T13:49:13.001Z,100583.00
2022-10-16T13:51:40.249Z,100596.00
2022-10-16T13:54:13.053Z,100571.06
2022-10-16T13:56:41.864Z,100592.31
2022-10-16T13:59:24.284Z,100576.00
2022-10-16T14:01:55.505Z,100590.16
2022-10-16T14:04:23.779Z,100577.84
2022-10-16T14:06:53.073Z,100579.47
2022-10-16T14:09:24.522Z,100597.47
2022-10-16T14:11:56.433Z,100590.59
2022-10-16T14:14:24.383Z,100597.44
2022-10-16T14:16:52.327Z,100582.84
2022-10-16T14:19:31.193Z,100585.56
2022-10-16T14:22:01.086Z,100607.91
2022-10-16T14:24:37.523Z,100595.28
2022-10-16T14:27:31.242Z,100603.94
2022-10-16T14:30:25.210Z,100595.50
2022-10-16T14:33:21.660Z,100599.19
2022-10-16T14:36:02.904Z,100623.53
2022-10-16T14:38:30.967Z,100626.38
2022-10-16T14:41:00.637Z,100627.41
2022-10-16T14:43:46.402Z,100620.69
2022-10-16T14:46:18.852Z,100623.25
2022-10-16T14:48:51.175Z,100628.50
2022-10-16T14:51:20.227Z,100632.09
2022-10-16T14:53:48.632Z,100635.59
2022-10-16T14:56:31.311Z,100629.66
2022-10-16T14:59:00.477Z,100605.25
2022-10-16T15:01:27.952Z,100635.22
2022-10-16T15:03:56.432Z,100651.91
2022-10-16T15:06:23.809Z,100641.66
2022-10-16T15:08:51.147Z,100654.66
2022-10-16T15:11:20.424Z,100651.28
2022-10-16T15:13:48.019Z,100630.84
2022-10-16T15:16:17.845Z,100637.78
2022-10-16T15:18:45.243Z,100648.25
2022-10-16T15:21:30.634Z,100657.13
2022-10-16T15:23:59.714Z,100663.25
2022-10-16T15:26:28.877Z,100663.38
2022-10-16T15:28:56.498Z,100667.00
2022-10-16T15:31:24.859Z,100663.72
2022-10-16T15:33:55.443Z,100668.19
2022-10-16T15:36:27.525Z,100641.00
2022-10-16T15:38:54.927Z,100656.59
2022-10-16T15:41:22.923Z,100663.44
2022-10-16T15:43:51.548Z,100661.94
2022-10-16T15:46:21.456Z,100660.50
2022-10-16T15:48:50.455Z,100647.13
2022-10-16T15:51:18.960Z,100684.19
2022-10-16T15:53:47.639Z,100679.13
2022-10-16T15:56:15.644Z,100680.09
2022-10-16T15:58:43.620Z,100683.78
2022-10-16T16:01:12.484Z,100680.56
2022-10-16T16:03:43.324Z,100692.66
2022-10-16T16:06:14.435Z,100691.09
2022-10-16T16:08:42.065Z,100676.84
2022-10-16T16:11:12.514Z,100696.63
2022-10-16T16:13:40.085Z,100668.53
2022-10-16T16:16:15.880Z,100702.13
2022-10-16T16:18:43.634Z,100679.31
2022-10-16T16:21:13.401Z,100719.78
2022-10-16T16:23:40.803Z,100728.59
2022-10-16T16:26:16.648Z,100733.97
2022-10-16T16:28:44.797Z,100713.56
2022-10-16T16:31:12.234Z,100737.72
2022-10-16T16:33:39.329Z,100732.56
2022-10-16T16:36:11.534Z,100740.59
2022-10-16T16:38:40.225Z,100746.84
2022-10-16T16:41:22.089Z,100754.72
2022-10-16T16:43:49.855Z,100765.38
2022-10-16T16:46:17.135Z,100761.97
2022-10-16T16:48:45.325Z,100765.59
2022-10-16T16:51:17.476Z,100764.84
2022-10-16T16:53:46.118Z,100771.88
2022-10-16T16:56:14.135Z,100775.44
2022-10-16T16:58:41.302Z,100694.03
2022-10-16T17:01:26.239Z,100778.97
2022-10-16T17:03:56.330Z,100766.28
2022-10-16T17:06:30.823Z,100752.78
2022-10-16T17:08:58.844Z,100752.03
2022-10-16T17:11:28.073Z,100785.56
2022-10-16T17:13:57.434Z,100795.25
2022-10-16T17:16:28.309Z,100798.91
2022-10-16T17:18:55.489Z,100797.31
2022-10-16T17:21:23.060Z,100806.88
2022-10-16T17:23:53.662Z,100761.41
2022-10-16T17:26:20.857Z,100773.50
2022-10-16T17:28:53.030Z,100816.50
2022-10-16T17:31:38.613Z,100826.06
2022-10-16T17:34:08.628Z,100837.44
2022-10-16T17:36:37.575Z,100839.19
2022-10-16T17:39:11.045Z,100835.72
2022-10-16T17:41:38.527Z,100828.97
2022-10-16T17:44:07.054Z,100845.44
2022-10-16T17:46:38.265Z,100823.25
2022-10-16T17:49:08.526Z,100795.03
2022-10-16T17:51:36.761Z,100872.44
2022-10-16T17:54:04.173Z,100794.41
2022-10-16T17:56:31.926Z,100877.66
2022-10-16T17:59:02.095Z,100881.09
2022-10-16T18:01:35.085Z,100884.56
2022-10-16T18:04:14.423Z,100884.72
2022-10-16T18:06:44.392Z,100877.81
2022-10-16T18:09:15.220Z,100882.06
2022-10-16T18:11:42.385Z,100864.91
2022-10-16T18:14:12.758Z,100883.88
2022-10-16T18:16:39.806Z,100883.09
2022-10-16T18:19:07.590Z,100876.34
2022-10-16T18:21:34.694Z,100890.13
2022-10-16T18:24:02.163Z,100891.91
2022-10-16T18:26:29.485Z,100903.25
2022-10-16T18:28:58.532Z,100899.78
2022-10-16T18:31:29.074Z,100893.94
2022-10-16T18:33:56.417Z,100902.59
2022-10-16T18:36:26.662Z,100915.56
2022-10-16T18:38:54.293Z,100915.63
2022-10-16T18:41:21.995Z,100915.75
2022-10-16T18:43:49.307Z,100918.41
2022-10-16T18:46:22.125Z,100920.19
2022-10-16T18:48:50.265Z,100920.31
2022-10-16T18:51:39.325Z,100920.38
2022-10-16T18:54:11.923Z,100927.41
2022-10-16T18:56:39.894Z,100936.13
2022-10-16T18:59:08.471Z,100936.19
2022-10-16T19:01:39.000Z,100941.41
2022-10-16T19:04:09.748Z,100945.75
2022-10-16T19:06:39.549Z,100949.28
2022-10-16T19:09:07.581Z,100939.75
2022-10-16T19:11:40.514Z,100943.22
2022-10-16T19:14:09.273Z,100934.72
2022-10-16T19:16:38.317Z,100958.84
2022-10-16T19:19:08.058Z,100966.66
2022-10-16T19:21:37.748Z,100881.56
2022-10-16T19:24:05.522Z,100952.16
2022-10-16T19:26:36.806Z,100975.50
2022-10-16T19:29:07.473Z,100971.22
2022-10-16T19:31:35.037Z,100972.19
2022-10-16T19:34:03.593Z,100962.78
2022-10-16T19:36:38.267Z,100986.97
2022-10-16T19:39:08.318Z,100945.63
2022-10-16T19:41:38.255Z,100977.50
2022-10-16T19:44:08.373Z,100992.16
2022-10-16T19:46:36.384Z,100968.91
2022-10-16T19:49:07.160Z,101005.19
2022-10-16T19:51:35.414Z,101006.09
2022-10-16T19:54:05.518Z,101006.16
2022-10-16T19:56:34.048Z,101006.25
2022-10-16T19:59:01.755Z,101002.78
2022-10-16T20:01:31.402Z,101008.81
2022-10-16T20:03:59.006Z,101010.59
2022-10-16T20:06:26.363Z,101011.50
2022-10-16T20:08:54.453Z,100971.81
2022-10-16T20:11:24.824Z,100975.31
2022-10-16T20:13:52.190Z,101006.28
2022-10-16T20:16:20.127Z,100996.00
2022-10-16T20:18:49.603Z,100993.44
2022-10-16T20:21:19.623Z,101011.63
2022-10-16T20:23:49.162Z,101007.41
2022-10-16T20:26:16.981Z,101022.97
2022-10-16T20:28:44.795Z,100992.94
2022-10-16T20:31:18.358Z,101036.94
2022-10-16T20:33:45.730Z,101041.38
2022-10-16T20:36:14.616Z,101046.56
2022-10-16T20:38:42.934Z,101038.00
2022-10-16T20:41:11.006Z,101055.28
2022-10-16T20:46:11.155Z,101058.81
2022-10-16T20:48:41.335Z,101051.91
2022-10-16T20:51:16.878Z,101045.06
2022-10-16T20:53:46.718Z,101067.50
2022-10-16T20:56:18.583Z,101064.06
2022-10-16T20:58:46.105Z,101068.47
2022-10-16T21:01:15.680Z,101075.44
2022-10-16T21:03:43.756Z,101081.56
2022-10-16T21:06:11.848Z,101087.69
2022-10-16T21:08:41.389Z,101099.84
2022-10-16T21:11:16.584Z,101076.59
2022-10-16T21:13:44.453Z,101105.94
2022-10-16T21:16:13.078Z,101093.06
2022-10-16T21:18:44.359Z,101101.63
2022-10-16T21:21:20.073Z,101099.03
2022-10-16T21:23:48.384Z,101066.28
2022-10-16T21:26:15.777Z,101099.94
2022-10-16T21:28:43.019Z,101105.13
2022-10-16T21:31:15.724Z,101111.19
2022-10-16T21:33:43.185Z,101062.94
2022-10-16T21:36:21.777Z,101083.63
2022-10-16T21:38:49.441Z,101107.78
2022-10-16T21:41:27.292Z,101117.34
2022-10-16T21:43:56.475Z,101124.25
2022-10-16T21:46:26.556Z,101136.38
2022-10-16T21:48:55.277Z,101135.59
2022-10-16T21:51:31.285Z,101139.09
2022-10-16T21:53:58.412Z,101129.66
2022-10-16T21:56:26.910Z,101141.69
2022-10-16T21:58:54.232Z,101109.75
2022-10-16T22:01:24.071Z,101139.09
2022-10-16T22:03:52.298Z,101137.34
2022-10-16T22:08:51.745Z,101149.47
2022-10-16T22:11:23.294Z,101147.75
2022-10-16T22:13:54.045Z,101152.09
2022-10-16T22:16:25.541Z,101103.78
2022-10-16T22:18:53.899Z,101151.25
2022-10-16T22:21:21.204Z,101158.19
2022-10-16T22:23:48.492Z,101135.75
2022-10-16T22:26:16.170Z,101123.69
2022-10-16T22:28:43.897Z,101151.25
2022-10-16T22:31:13.675Z,101164.25
2022-10-16T22:33:43.505Z,101159.88
2022-10-16T22:36:15.163Z,101158.13
2022-10-16T22:38:42.475Z,101167.66
2022-10-16T22:41:12.534Z,101158.16
2022-10-16T22:43:43.312Z,101165.09
2022-10-16T22:46:14.157Z,101172.03
2022-10-16T22:48:42.127Z,101175.56
2022-10-16T22:51:15.735Z,101172.06
2022-10-16T22:53:48.446Z,101159.97
2022-10-16T22:56:17.992Z,101182.47
2022-10-16T22:58:45.372Z,101180.75
2022-10-16T23:01:14.765Z,101182.50
2022-10-16T23:03:42.147Z,101179.06
2022-10-16T23:06:09.225Z,101182.59
2022-10-16T23:08:36.321Z,101144.59
2022-10-16T23:11:08.463Z,101161.84
2022-10-16T23:13:45.800Z,101171.38
2022-10-16T23:16:15.594Z,101175.72
2022-10-16T23:18:44.594Z,101180.94
2022-10-16T23:21:18.484Z,101184.41
2022-10-16T23:23:45.663Z,101187.91
2022-10-16T23:26:17.934Z,101165.47
2022-10-16T23:28:45.601Z,101188.81
2022-10-16T23:31:13.773Z,101193.13
2022-10-16T23:33:42.131Z,101168.97
2022-10-16T23:36:14.607Z,101194.88
2022-10-16T23:38:43.554Z,101206.13
2022-10-16T23:41:11.328Z,101210.50
2022-10-16T23:43:38.545Z,101220.00
2022-10-16T23:46:06.964Z,101222.59
2022-10-16T23:48:34.434Z,101127.63
2022-10-16T23:51:01.873Z,101230.41
2022-10-16T23:53:29.083Z,101204.50
2022-10-16T23:55:56.386Z,101210.56
2022-10-16T23:58:23.980Z,101233.00
